Nearby METAR Reports

 

KVGT - North Las Vegas, Nevada, USA
Distance from station: SSW 4mi, 7km
Updated: Sat, 21-May-2022 3:53pm PDT
Clear
Clear
 Wind from SSE
Wind: SSE 8 mph , 13 km/h
Temperature: 82°F , 28°C
Dew Point: 14°F , -10°C
Humidity: 7%
Barometer: 29.86 inHg , 1011.2 hPa
Clouds: Clear
Visibility: 10 miles , 16 km
2022/05/21 22:53 KVGT 212253Z 16007KT 10SM CLR 28/M10 A2986 RMK AO2 SLP109 T02781100
KLSV - Las Vegas/Nellis, Nevada, USA
Distance from station: ESE 10mi, 16km
Updated: Sat, 21-May-2022 3:58pm PDT
Clear
Clear
 Wind from S
Wind: S 5 mph , 7 km/h
Temperature: 86°F , 30°C
Dew Point: 12°F , -11°C
Humidity: 6%
Barometer: 29.84 inHg , 1010.5 hPa
Clouds: Clear
Visibility: 10 miles , 16 km
2022/05/21 22:58 KLSV 212258Z AUTO 18004KT 10SM CLR 30/M11 A2984 RMK AO2 SLP087 T03021114 $
 
KLAS - Las Vegas, Nevada, USA
Distance from station: S 15mi, 23km
Updated: Sat, 21-May-2022 3:56pm PDT
Clear
Clear
 Wind from NNW
Wind: NNW 5 mph , 7 km/h
Temperature: 82°F , 28°C
Dew Point: 12°F , -11°C
Humidity: 7%
Barometer: 29.86 inHg , 1011.2 hPa
Clouds: Clear
Visibility: 10 miles , 16 km
2022/05/21 22:56 KLAS 212256Z 34004KT 10SM CLR 28/M11 A2986 RMK AO2 SLP092 T02781106
KHND - Vegas/Henderson, Nevada, USA
Distance from station: S 20mi, 33km
Updated: Sat, 21-May-2022 3:56pm PDT
Clear
Clear
 Wind from varies
Wind: varies 6 mph , 9 km/h
Temperature: 82°F , 28°C
Dew Point: 14°F , -10°C
Humidity: 7%
Barometer: 29.88 inHg , 1011.9 hPa
Clouds: Clear
Visibility: 10 miles , 16 km
2022/05/21 22:56 KHND 212256Z VRB05KT 10SM CLR 28/M10 A2988 RMK AO2 SLP114 T02781100
 
KBVU - Boulder City, Nevada, USA
Distance from station: SE 28mi, 46km
Updated: Sat, 21-May-2022 3:55pm PDT
Clear
Clear
 Wind from SSW
Wind: SSW 8 mph , 13 km/h
Temperature: 82°F , 28°C
Dew Point: 7°F , -14°C
Humidity: 5%
Barometer: 29.86 inHg , 1011.2 hPa
Clouds: Clear
Visibility: 10 miles , 16 km
2022/05/21 22:55 KBVU 212255Z AUTO 21007KT 150V230 10SM CLR 28/M14 A2986 RMK AO2
KINS - Indian Springs, Nevada, USA
Distance from station: NW 35mi, 56km
Updated: Sat, 21-May-2022 3:58pm PDT
Clear
Clear
 Wind from S
Wind: S 3 mph , 6 km/h
Temperature: 79°F , 26°C
Dew Point: 5°F , -15°C
Humidity: 6%
Barometer: 29.89 inHg , 1012.2 hPa
Clouds: Clear
Visibility: 10 miles , 16 km
2022/05/21 22:58 KINS 212258Z AUTO 17003KT 10SM CLR 26/M15 A2989 RMK AO2 SLP085 T02551148 $